Time;durP1;ratioP1;P1;durP2;ratioP2;P2;SDS_P1;SDS_P2;PMS_P1;PMS_P2;Temp;Humidity;BMP_temperature;BMP_pressure;BME280_temperature;BME280_humidity;BME280_pressure;Samples;Min_cycle;Max_cycle;Signal;HPM_P1;HPM_P2
2023/04/12 00:00:32;;;;;;;6.20;1.70;;;;;;;-145.18;100.00;60484.78;5054508;28;20039;-69
2023/04/12 00:03:01;;;;;;;7.23;2.17;;;;;;;-145.18;100.00;60484.78;5054848;28;20041;-69
2023/04/12 00:05:27;;;;;;;6.23;1.93;;;;;;;-145.18;100.00;60484.78;5055022;28;20024;-69
2023/04/12 00:07:53;;;;;;;8.13;2.17;;;;;;;-145.18;100.00;60484.78;5054964;28;20017;-69
2023/04/12 00:10:20;;;;;;;7.73;2.13;;;;;;;-145.18;100.00;60484.78;5054834;28;20072;-69
2023/04/12 00:12:46;;;;;;;9.03;2.10;;;;;;;-145.18;100.00;60484.78;5055026;28;20518;-69
2023/04/12 00:15:12;;;;;;;7.33;2.50;;;;;;;-145.18;100.00;60484.78;5054810;28;20109;-70
2023/04/12 00:17:38;;;;;;;6.10;1.97;;;;;;;-145.18;100.00;60484.78;5054083;28;20100;-69
2023/04/12 00:20:05;;;;;;;4.87;1.87;;;;;;;-145.18;100.00;60484.78;5055103;28;20425;-69
2023/04/12 00:22:31;;;;;;;6.90;2.30;;;;;;;-145.18;100.00;60484.78;5054869;28;20040;-69
2023/04/12 00:24:57;;;;;;;8.20;2.13;;;;;;;-145.18;100.00;60484.78;5054155;28;20029;-69
2023/04/12 00:27:22;;;;;;;6.03;2.07;;;;;;;-145.18;100.00;60484.78;5054739;28;20021;-70
2023/04/12 00:29:48;;;;;;;7.47;2.10;;;;;;;-145.18;100.00;60484.78;5054913;28;20389;-69
2023/04/12 00:32:13;;;;;;;5.63;1.83;;;;;;;-145.18;100.00;60484.78;5054965;28;20025;-69
2023/04/12 00:34:38;;;;;;;5.13;2.00;;;;;;;-145.18;100.00;60484.78;5054772;28;20029;-69
2023/04/12 00:37:04;;;;;;;6.37;1.90;;;;;;;-145.18;100.00;60484.78;5054692;28;20110;-69
2023/04/12 00:39:30;;;;;;;4.87;1.97;;;;;;;-145.18;100.00;60484.78;5054575;28;20052;-69
2023/04/12 00:42:00;;;;;;;6.33;2.10;;;;;;;-145.18;100.00;60484.78;5054488;28;20100;-70
2023/04/12 00:44:25;;;;;;;5.03;1.80;;;;;;;-145.18;100.00;60484.78;5054352;28;20447;-70
2023/04/12 00:46:51;;;;;;;4.83;1.47;;;;;;;-145.18;100.00;60484.78;5054651;28;20155;-69
2023/04/12 00:49:17;;;;;;;6.60;1.80;;;;;;;-145.18;100.00;60484.78;5053879;28;20033;-69
2023/04/12 00:51:42;;;;;;;6.50;1.90;;;;;;;-145.18;100.00;60484.78;5043513;28;20033;-69
2023/04/12 00:54:08;;;;;;;10.97;2.67;;;;;;;-145.18;100.00;60484.78;5053857;28;20021;-69
2023/04/12 00:56:34;;;;;;;5.77;1.90;;;;;;;-145.18;100.00;60484.78;5053676;28;20036;-70
2023/04/12 00:59:00;;;;;;;7.57;2.93;;;;;;;-145.18;100.00;60484.78;5054133;28;20385;-69
2023/04/12 01:04:12;;;;;;;7.47;2.13;;;;;;;-145.18;100.00;60484.78;5011085;28;20395;-63
2023/04/12 01:07:06;;;;;;;4.67;1.83;;;;;;;-145.18;100.00;60484.78;5014187;28;20088;-63
2023/04/12 01:09:57;;;;;;;5.70;1.87;;;;;;;-145.18;100.00;60484.78;5012867;28;20374;-62
2023/04/12 01:13:03;;;;;;;7.83;2.47;;;;;;;-145.18;100.00;60484.78;5014374;28;20462;-62
2023/04/12 01:15:31;;;;;;;8.93;2.67;;;;;;;-145.18;100.00;60484.78;5010735;28;20083;-63
2023/04/12 01:18:24;;;;;;;6.10;2.20;;;;;;;-145.18;100.00;60484.78;5014324;28;20409;-63
2023/04/12 01:21:00;;;;;;;7.80;2.40;;;;;;;-145.18;100.00;60484.78;5003402;28;20034;-63
2023/04/12 01:23:57;;;;;;;7.27;2.17;;;;;;;-145.18;100.00;60484.78;4994698;28;20060;-63
2023/04/12 01:26:47;;;;;;;6.27;2.37;;;;;;;-145.18;100.00;60484.78;5001623;28;20030;-63
2023/04/12 01:29:15;;;;;;;10.17;2.50;;;;;;;-145.18;100.00;60484.78;5011212;28;20111;-63
2023/04/12 01:31:49;;;;;;;8.67;2.33;;;;;;;-145.18;100.00;60484.78;5013904;28;20029;-63
2023/04/12 01:34:16;;;;;;;6.83;2.63;;;;;;;-145.18;100.00;60484.78;5010673;28;20029;-63
2023/04/12 01:36:45;;;;;;;5.83;2.50;;;;;;;-145.18;100.00;60484.78;4994448;28;20022;-63
2023/04/12 01:39:11;;;;;;;6.57;2.47;;;;;;;-145.18;100.00;60484.78;4994458;28;20066;-64
2023/04/12 01:41:47;;;;;;;5.10;1.60;;;;;;;-145.18;100.00;60484.78;4994444;28;20030;-63
2023/04/12 01:44:16;;;;;;;5.80;2.00;;;;;;;-145.18;100.00;60484.78;5007536;28;20028;-62
2023/04/12 01:46:43;;;;;;;7.03;2.40;;;;;;;-145.18;100.00;60484.78;4994194;28;20034;-63
2023/04/12 01:49:11;;;;;;;4.33;2.10;;;;;;;-145.18;100.00;60484.78;4997414;28;20026;-62
2023/04/12 01:52:00;;;;;;;7.60;2.40;;;;;;;-145.18;100.00;60484.78;5005916;28;20157;-62
2023/04/12 01:54:32;;;;;;;6.80;2.10;;;;;;;-145.18;100.00;60484.78;4993801;28;20185;-62
2023/04/12 01:57:00;;;;;;;9.88;2.90;;;;;;;-145.18;100.00;60484.78;5009672;28;20100;-63
2023/04/12 01:59:30;;;;;;;12.30;2.60;;;;;;;-145.18;100.00;60484.78;4995205;28;20051;-63
2023/04/12 02:01:56;;;;;;;10.73;2.50;;;;;;;-145.18;100.00;60484.78;5013520;28;20129;-63
2023/04/12 02:04:25;;;;;;;8.90;2.47;;;;;;;-145.18;100.00;60484.78;5011567;28;20504;-60
2023/04/12 02:06:51;;;;;;;6.10;1.70;;;;;;;-145.18;100.00;60484.78;5013555;28;20100;-60
2023/04/12 02:09:16;;;;;;;4.90;1.80;;;;;;;-145.18;100.00;60484.78;5013346;28;20030;-60
2023/04/12 02:11:47;;;;;;;10.10;2.63;;;;;;;-145.18;100.00;60484.78;5013385;28;20398;-61
2023/04/12 02:14:13;;;;;;;7.28;2.40;;;;;;;-145.18;100.00;60484.78;5013464;28;20545;-60
2023/04/12 02:16:41;;;;;;;5.33;2.07;;;;;;;-145.18;100.00;60484.78;5012525;28;20101;-61
2023/04/12 02:19:07;;;;;;;10.90;2.63;;;;;;;-145.18;100.00;60484.78;5013571;28;20029;-60
2023/04/12 02:21:44;;;;;;;8.40;2.47;;;;;;;-145.18;100.00;60484.78;5013126;28;20033;-61
2023/04/12 02:24:10;;;;;;;7.70;2.13;;;;;;;-145.18;100.00;60484.78;5012362;28;20049;-61
2023/04/12 02:26:37;;;;;;;10.97;2.43;;;;;;;-145.18;100.00;60484.78;5013428;28;20034;-61
2023/04/12 02:29:03;;;;;;;11.47;2.97;;;;;;;-145.18;100.00;60484.78;5013530;28;20481;-60
2023/04/12 02:31:31;;;;;;;7.47;2.40;;;;;;;-145.18;100.00;60484.78;5013162;28;20022;-60
2023/04/12 02:33:57;;;;;;;7.43;2.33;;;;;;;-145.18;100.00;60484.78;5010934;28;20375;-60
2023/04/12 02:36:23;;;;;;;7.80;2.40;;;;;;;-145.18;100.00;60484.78;5013415;28;20092;-61
2023/04/12 02:38:51;;;;;;;6.00;2.37;;;;;;;-145.18;100.00;60484.78;5013116;28;20100;-60
2023/04/12 02:41:18;;;;;;;5.73;2.13;;;;;;;-145.18;100.00;60484.78;5012967;28;20037;-61
2023/04/12 02:43:44;;;;;;;7.43;2.23;;;;;;;-145.18;100.00;60484.78;5013010;28;20096;-60
2023/04/12 02:46:13;;;;;;;11.17;2.37;;;;;;;-145.18;100.00;60484.78;5012991;28;20026;-60
2023/04/12 02:48:38;;;;;;;5.83;2.03;;;;;;;-145.18;100.00;60484.78;5013295;28;20121;-61
2023/04/12 02:51:04;;;;;;;9.33;2.47;;;;;;;-145.18;100.00;60484.78;5009399;28;20124;-65
2023/04/12 02:53:29;;;;;;;7.23;2.13;;;;;;;-145.18;100.00;60484.78;5007345;28;20018;-65
2023/04/12 02:55:56;;;;;;;9.20;2.33;;;;;;;-145.18;100.00;60484.78;4995217;28;20033;-65
2023/04/12 02:58:23;;;;;;;8.00;2.17;;;;;;;-145.18;100.00;60484.78;5003751;28;20221;-65
2023/04/12 03:00:48;;;;;;;7.63;2.57;;;;;;;-145.18;100.00;60484.78;4993972;28;20662;-60
2023/04/12 03:03:16;;;;;;;5.20;2.20;;;;;;;-145.18;100.00;60484.78;4993834;28;20141;-60
2023/04/12 03:05:46;;;;;;;7.23;2.13;;;;;;;-145.18;100.00;60484.78;4993514;28;20026;-61
2023/04/12 03:08:12;;;;;;;7.50;2.30;;;;;;;-145.18;100.00;60484.78;4998753;28;20033;-60
2023/04/12 03:10:37;;;;;;;9.27;2.53;;;;;;;-145.18;100.00;60484.78;5006354;28;20394;-60
2023/04/12 03:13:03;;;;;;;6.77;2.43;;;;;;;-145.18;100.00;60484.78;5012825;28;20041;-60
2023/04/12 03:15:30;;;;;;;7.03;2.50;;;;;;;-145.18;100.00;60484.78;5013006;28;20029;-60
2023/04/12 03:17:56;;;;;;;5.83;2.13;;;;;;;-145.18;100.00;60484.78;5016588;28;20393;-60
2023/04/12 03:20:24;;;;;;;7.33;2.27;;;;;;;-145.18;100.00;60484.78;5016444;28;20025;-60
2023/04/12 03:22:50;;;;;;;11.23;2.43;;;;;;;-145.18;100.00;60484.78;5016230;28;20101;-60
2023/04/12 03:25:17;;;;;;;7.53;3.07;;;;;;;-145.18;100.00;60484.78;5015478;28;20548;-61
2023/04/12 03:27:43;;;;;;;9.87;2.57;;;;;;;-145.18;100.00;60484.78;5016040;28;20080;-60
2023/04/12 03:30:10;;;;;;;9.03;2.40;;;;;;;-145.18;100.00;60484.78;5016154;28;20029;-60
2023/04/12 03:32:36;;;;;;;5.20;2.10;;;;;;;-145.18;100.00;60484.78;5016019;28;20061;-60
2023/04/12 03:35:02;;;;;;;6.40;2.20;;;;;;;-145.18;100.00;60484.78;5016300;28;20052;-61
2023/04/12 03:37:28;;;;;;;7.57;2.03;;;;;;;-145.18;100.00;60484.78;5015921;28;20025;-60
2023/04/12 03:39:53;;;;;;;5.83;2.40;;;;;;;-145.18;100.00;60484.78;5016000;28;20026;-60
2023/04/12 03:42:19;;;;;;;5.33;2.10;;;;;;;-145.18;100.00;60484.78;5014854;28;20028;-60
2023/04/12 03:44:44;;;;;;;8.27;2.37;;;;;;;-145.18;100.00;60484.78;5016106;28;20084;-60
2023/04/12 03:47:10;;;;;;;9.67;2.77;;;;;;;-145.18;100.00;60484.78;5015917;28;20053;-61
2023/04/12 03:49:37;;;;;;;7.73;2.00;;;;;;;-145.18;100.00;60484.78;5016079;28;20482;-60
2023/04/12 03:52:04;;;;;;;5.93;2.47;;;;;;;-145.18;100.00;60484.78;5015847;28;20478;-61
2023/04/12 03:54:30;;;;;;;8.87;2.20;;;;;;;-145.18;100.00;60484.78;5015521;28;20030;-61
2023/04/12 03:56:55;;;;;;;11.00;2.77;;;;;;;-145.18;100.00;60484.78;4997188;28;20540;-60
2023/04/12 03:59:21;;;;;;;7.40;2.33;;;;;;;-145.18;100.00;60484.78;5012289;28;20030;-61
2023/04/12 04:01:47;;;;;;;6.43;1.93;;;;;;;-145.18;100.00;60484.78;5014587;28;20038;-64
2023/04/12 04:04:12;;;;;;;6.70;2.00;;;;;;;-145.18;100.00;60484.78;4997458;28;20058;-63
2023/04/12 04:06:38;;;;;;;11.57;2.40;;;;;;;-145.18;100.00;60484.78;5012990;28;20475;-63
2023/04/12 04:09:04;;;;;;;11.07;2.17;;;;;;;-145.18;100.00;60484.78;4994554;28;20031;-63
2023/04/12 04:11:30;;;;;;;7.97;1.97;;;;;;;-145.18;100.00;60484.78;4997132;28;20030;-63
2023/04/12 04:13:56;;;;;;;6.87;2.10;;;;;;;-145.18;100.00;60484.78;5012278;28;20109;-63
2023/04/12 04:16:21;;;;;;;6.27;1.73;;;;;;;-145.18;100.00;60484.78;5002312;28;20028;-62
2023/04/12 04:18:47;;;;;;;6.10;1.83;;;;;;;-145.18;100.00;60484.78;5005955;28;20114;-63
2023/04/12 04:21:13;;;;;;;7.60;2.13;;;;;;;-145.18;100.00;60484.78;4995587;28;20057;-63
2023/04/12 04:23:38;;;;;;;5.77;1.97;;;;;;;-145.18;100.00;60484.78;5002449;28;20393;-63
2023/04/12 04:26:10;;;;;;;6.03;1.90;;;;;;;-145.18;100.00;60484.78;5003389;28;20030;-62
2023/04/12 04:28:37;;;;;;;;;;;;;;;-145.18;100.00;60484.78;4995084;28;20101;-63
2023/04/12 04:31:05;;;;;;;6.93;1.87;;;;;;;-145.18;100.00;60484.78;5014083;28;19909;-63
2023/04/12 04:33:34;;;;;;;4.87;1.73;;;;;;;-145.18;100.00;60484.78;5007363;28;20026;-62
2023/04/12 04:36:00;;;;;;;6.53;2.37;;;;;;;-145.18;100.00;60484.78;5005854;28;20033;-63
2023/04/12 04:38:25;;;;;;;10.03;1.93;;;;;;;-145.18;100.00;60484.78;5000341;28;20033;-63
2023/04/12 04:40:54;;;;;;;4.67;1.90;;;;;;;-145.18;100.00;60484.78;4996640;28;20022;-63
2023/04/12 04:43:20;;;;;;;11.17;1.90;;;;;;;-145.18;100.00;60484.78;5014696;28;20033;-63
2023/04/12 04:45:49;;;;;;;6.90;2.47;;;;;;;-145.18;100.00;60484.78;5012666;28;20091;-63
2023/04/12 04:48:15;;;;;;;5.37;1.83;;;;;;;-145.18;100.00;60484.78;5014652;28;20017;-61
2023/04/12 04:50:41;;;;;;;8.50;2.43;;;;;;;-145.18;100.00;60484.78;5005540;28;20390;-63
2023/04/12 04:53:06;;;;;;;8.03;2.30;;;;;;;-145.18;100.00;60484.78;5005538;28;20045;-62
2023/04/12 04:55:32;;;;;;;9.10;2.13;;;;;;;-145.18;100.00;60484.78;5012078;28;20034;-62
2023/04/12 04:57:57;;;;;;;9.27;2.43;;;;;;;-145.18;100.00;60484.78;5007235;28;20101;-63
2023/04/12 05:00:24;;;;;;;5.33;1.90;;;;;;;-145.18;100.00;60484.78;4995207;28;20022;-63
2023/04/12 05:02:50;;;;;;;8.67;2.30;;;;;;;-145.18;100.00;60484.78;5003211;28;20149;-60
2023/04/12 05:05:16;;;;;;;8.13;2.17;;;;;;;-145.18;100.00;60484.78;5003678;28;20100;-60
2023/04/12 05:07:42;;;;;;;12.67;2.53;;;;;;;-145.18;100.00;60484.78;5006878;28;20033;-60
2023/04/12 05:10:09;;;;;;;9.40;2.60;;;;;;;-145.18;100.00;60484.78;5008696;28;20034;-61
2023/04/12 05:12:36;;;;;;;6.03;1.87;;;;;;;-145.18;100.00;60484.78;4993342;28;20470;-60
2023/04/12 05:15:02;;;;;;;6.13;2.30;;;;;;;-145.18;100.00;60484.78;4994708;28;20030;-60
2023/04/12 05:17:28;;;;;;;7.27;1.90;;;;;;;-145.18;100.00;60484.78;5005241;28;20029;-60
2023/04/12 05:19:54;;;;;;;4.97;1.60;;;;;;;-145.18;100.00;60484.78;5013469;28;20030;-60
2023/04/12 05:22:23;;;;;;;5.23;1.80;;;;;;;-145.18;100.00;60484.78;5003333;28;20030;-60
2023/04/12 05:24:48;;;;;;;7.60;1.97;;;;;;;-145.18;100.00;60484.78;5004695;28;20095;-63
2023/04/12 05:27:15;;;;;;;8.13;2.03;;;;;;;-145.18;100.00;60484.78;4996627;28;20027;-62
2023/04/12 05:29:42;;;;;;;7.20;2.00;;;;;;;-145.18;100.00;60484.78;5007362;28;20374;-63
2023/04/12 05:32:08;;;;;;;10.10;2.17;;;;;;;-145.18;100.00;60484.78;4996864;28;20482;-61
2023/04/12 05:34:33;;;;;;;8.10;1.90;;;;;;;-145.18;100.00;60484.78;4998073;28;20109;-60
2023/04/12 05:36:59;;;;;;;7.87;1.63;;;;;;;-145.18;100.00;60484.78;4994735;28;20402;-60
2023/04/12 05:39:26;;;;;;;7.23;1.50;;;;;;;-145.18;100.00;60484.78;4995839;28;20042;-61
2023/04/12 05:41:52;;;;;;;7.53;2.10;;;;;;;-145.18;100.00;60484.78;5006098;28;20034;-62
2023/04/12 05:44:17;;;;;;;6.07;1.97;;;;;;;-145.18;100.00;60484.78;5013897;28;20079;-62
2023/04/12 05:46:43;;;;;;;5.43;1.73;;;;;;;-145.18;100.00;60484.78;5012058;28;20029;-61
2023/04/12 05:49:08;;;;;;;5.37;1.70;;;;;;;-145.18;100.00;60484.78;5011775;28;20462;-61
2023/04/12 05:51:34;;;;;;;4.10;1.47;;;;;;;-145.18;100.00;60484.78;4997632;28;20493;-61
2023/04/12 05:54:00;;;;;;;8.50;1.93;;;;;;;-145.18;100.00;60484.78;4996789;28;20101;-61
2023/04/12 05:56:26;;;;;;;5.77;1.63;;;;;;;-145.18;100.00;60484.78;5004892;28;20033;-62
2023/04/12 05:58:51;;;;;;;5.43;1.67;;;;;;;-145.18;100.00;60484.78;4999662;28;20112;-63
2023/04/12 06:01:18;;;;;;;6.07;1.90;;;;;;;-145.18;100.00;60484.78;4993737;28;20034;-62
2023/04/12 06:03:44;;;;;;;8.77;2.37;;;;;;;-145.18;100.00;60484.78;4993376;28;20054;-63
2023/04/12 06:06:10;;;;;;;6.67;1.87;;;;;;;-145.18;100.00;60484.78;4990680;28;20456;-62
2023/04/12 06:08:36;;;;;;;4.80;1.30;;;;;;;-145.18;100.00;60484.78;4974613;28;20038;-61
2023/04/12 06:11:06;;;;;;;5.53;1.57;;;;;;;-145.18;100.00;60484.78;4974542;28;20031;-61
2023/04/12 06:13:32;;;;;;;8.80;2.03;;;;;;;-145.18;100.00;60484.78;4974538;28;20479;-61
2023/04/12 06:15:58;;;;;;;7.33;1.90;;;;;;;-145.18;100.00;60484.78;4986573;28;20045;-61
2023/04/12 06:18:23;;;;;;;5.27;1.70;;;;;;;-145.18;100.00;60484.78;4993764;28;20040;-61
2023/04/12 06:20:49;;;;;;;7.73;2.00;;;;;;;-145.18;100.00;60484.78;4993867;28;20061;-61
2023/04/12 06:23:14;;;;;;;7.43;1.90;;;;;;;-145.18;100.00;60484.78;4992874;28;20026;-62
2023/04/12 06:25:40;;;;;;;3.50;1.40;;;;;;;-145.18;100.00;60484.78;4991246;28;20035;-61
2023/04/12 06:28:05;;;;;;;5.60;1.40;;;;;;;-145.18;100.00;60484.78;4993599;28;20432;-61
2023/04/12 06:30:31;;;;;;;4.37;1.60;;;;;;;-145.18;100.00;60484.78;4993844;28;20081;-61
2023/04/12 06:32:56;;;;;;;3.93;1.00;;;;;;;-145.18;100.00;60484.78;4993683;28;20041;-61
2023/04/12 06:35:22;;;;;;;5.07;1.50;;;;;;;-145.18;100.00;60484.78;4993530;28;20022;-61
2023/04/12 06:37:48;;;;;;;4.63;1.27;;;;;;;-145.18;100.00;60484.78;4993842;28;20022;-61
2023/04/12 06:40:14;;;;;;;9.97;1.67;;;;;;;-145.18;100.00;60484.78;4993405;28;20397;-62
2023/04/12 06:42:39;;;;;;;6.37;2.13;;;;;;;-145.18;100.00;60484.78;4990995;28;20117;-61
2023/04/12 06:45:06;;;;;;;3.20;0.97;;;;;;;-145.18;100.00;60484.78;4974012;28;20513;-61
2023/04/12 06:47:32;;;;;;;6.83;1.53;;;;;;;-145.18;100.00;60484.78;4973989;28;20089;-62
2023/04/12 06:49:57;;;;;;;2.77;1.17;;;;;;;-145.18;100.00;60484.78;4985339;28;20113;-61
2023/04/12 06:52:26;;;;;;;5.83;1.50;;;;;;;-145.18;100.00;60484.78;4983381;28;20035;-62
2023/04/12 06:54:53;;;;;;;5.00;1.53;;;;;;;-145.18;100.00;60484.78;4978582;28;20035;-62
2023/04/12 06:57:18;;;;;;;4.77;1.27;;;;;;;-145.18;100.00;60484.78;4997404;28;20022;-61
2023/04/12 06:59:44;;;;;;;5.90;2.00;;;;;;;-145.18;100.00;60484.78;4997426;28;20481;-61
2023/04/12 07:02:10;;;;;;;4.70;1.30;;;;;;;-145.18;100.00;60484.78;4998449;28;20482;-61
2023/04/12 07:04:36;;;;;;;3.50;1.20;;;;;;;-145.18;100.00;60484.78;5016530;28;20470;-61
2023/04/12 07:07:01;;;;;;;6.73;1.80;;;;;;;-145.18;100.00;60484.78;5014894;28;20037;-61
2023/04/12 07:09:31;;;;;;;7.43;1.63;;;;;;;-145.18;100.00;60484.78;4997163;28;20034;-61
2023/04/12 07:11:56;;;;;;;5.80;1.57;;;;;;;-145.18;100.00;60484.78;4998775;28;20041;-61
2023/04/12 07:14:22;;;;;;;4.87;1.30;;;;;;;-145.18;100.00;60484.78;5016479;28;20029;-61
2023/04/12 07:16:47;;;;;;;5.23;1.40;;;;;;;-145.18;100.00;60484.78;5016552;28;20022;-62
2023/04/12 07:19:13;;;;;;;5.30;1.43;;;;;;;-145.18;100.00;60484.78;5016278;28;20489;-61
2023/04/12 07:21:38;;;;;;;5.50;1.50;;;;;;;-145.18;100.00;60484.78;5016563;28;20038;-61
2023/04/12 07:24:04;;;;;;;6.07;1.70;;;;;;;-145.18;100.00;60484.78;5015861;28;20030;-61
2023/04/12 07:26:30;;;;;;;7.43;2.00;;;;;;;-145.18;100.00;60484.78;5016293;28;20030;-61
2023/04/12 07:28:55;;;;;;;6.63;1.60;;;;;;;-145.18;100.00;60484.78;5016400;28;20071;-62
2023/04/12 07:31:22;;;;;;;7.20;1.73;;;;;;;-145.18;100.00;60484.78;5016109;28;20022;-61
2023/04/12 07:33:47;;;;;;;2.87;1.23;;;;;;;-145.18;100.00;60484.78;5016132;28;20045;-60
2023/04/12 07:36:15;;;;;;;4.97;1.80;;;;;;;-145.18;100.00;60484.78;5016394;28;20034;-62
2023/04/12 07:38:41;;;;;;;4.23;1.40;;;;;;;-145.18;100.00;60484.78;5016143;28;20445;-61
2023/04/12 07:41:06;;;;;;;3.53;1.40;;;;;;;-145.18;100.00;60484.78;5015631;28;20100;-61
2023/04/12 07:43:32;;;;;;;6.93;1.63;;;;;;;-145.18;100.00;60484.78;5016033;28;20370;-61
2023/04/12 07:45:58;;;;;;;3.90;1.50;;;;;;;-145.18;100.00;60484.78;5016111;28;20096;-61
2023/04/12 07:48:24;;;;;;;7.07;1.87;;;;;;;-145.18;100.00;60484.78;5015846;28;20029;-61
2023/04/12 07:50:50;;;;;;;7.83;2.27;;;;;;;-145.18;100.00;60484.78;5012609;28;20112;-61
2023/04/12 07:53:24;;;;;;;6.37;1.70;;;;;;;-145.18;100.00;60484.78;5009987;28;20026;-62
2023/04/12 07:55:49;;;;;;;4.57;1.70;;;;;;;-145.18;100.00;60484.78;5015277;28;20026;-62
2023/04/12 07:58:16;;;;;;;7.07;2.03;;;;;;;-145.18;100.00;60484.78;5014763;28;20022;-62
2023/04/12 08:00:45;;;;;;;5.17;1.70;;;;;;;-145.18;100.00;60484.78;5015913;28;20028;-62
2023/04/12 08:03:12;;;;;;;5.67;1.57;;;;;;;-145.18;100.00;60484.78;5006309;28;20058;-62
2023/04/12 08:05:51;;;;;;;7.00;1.90;;;;;;;-145.18;100.00;60484.78;4995824;28;20122;-62
2023/04/12 08:08:17;;;;;;;5.97;2.40;;;;;;;-145.18;100.00;60484.78;5014614;28;20029;-62
2023/04/12 08:10:42;;;;;;;5.03;1.90;;;;;;;-145.18;100.00;60484.78;5015738;28;20390;-62
2023/04/12 08:13:08;;;;;;;5.07;2.10;;;;;;;-145.18;100.00;60484.78;5015290;28;20488;-62
2023/04/12 08:15:33;;;;;;;5.90;1.77;;;;;;;-145.18;100.00;60484.78;4998907;28;20450;-62
2023/04/12 08:18:00;;;;;;;6.03;1.80;;;;;;;-145.18;100.00;60484.78;4994775;28;20022;-63
2023/04/12 08:20:25;;;;;;;4.80;1.73;;;;;;;-145.18;100.00;60484.78;4995655;28;20076;-63
2023/04/12 08:22:51;;;;;;;6.00;2.10;;;;;;;-145.18;100.00;60484.78;4995566;28;20109;-62
2023/04/12 08:25:17;;;;;;;3.70;1.63;;;;;;;-145.18;100.00;60484.78;5005968;28;20026;-63
2023/04/12 08:27:42;;;;;;;2.73;1.23;;;;;;;-145.18;100.00;60484.78;5015071;28;20033;-63
2023/04/12 08:30:09;;;;;;;5.67;2.03;;;;;;;-145.18;100.00;60484.78;5012759;28;20030;-63
2023/04/12 08:32:36;;;;;;;4.10;1.87;;;;;;;-145.18;100.00;60484.78;4998640;28;20613;-64
2023/04/12 08:35:02;;;;;;;4.50;1.80;;;;;;;-145.18;100.00;60484.78;4995699;28;20493;-65
2023/04/12 08:37:27;;;;;;;6.23;2.10;;;;;;;-145.18;100.00;60484.78;4995358;28;20034;-64
2023/04/12 08:39:53;;;;;;;3.60;1.37;;;;;;;-145.18;100.00;60484.78;4991210;28;20401;-64
2023/04/12 08:42:19;;;;;;;7.20;2.10;;;;;;;-145.18;100.00;60484.78;5014422;28;20033;-64
2023/04/12 08:44:45;;;;;;;3.97;1.90;;;;;;;-145.18;100.00;60484.78;5013966;28;20057;-66
2023/04/12 08:47:11;;;;;;;3.83;1.43;;;;;;;-145.18;100.00;60484.78;5014720;28;20462;-65
2023/04/12 08:49:37;;;;;;;10.60;3.27;;;;;;;-145.18;100.00;60484.78;5012909;28;20068;-66
2023/04/12 08:52:05;;;;;;;9.03;2.63;;;;;;;-145.18;100.00;60484.78;5014375;28;20029;-67
2023/04/12 08:54:31;;;;;;;5.67;2.30;;;;;;;-145.18;100.00;60484.78;5014641;28;20026;-67
2023/04/12 08:56:59;;;;;;;6.63;2.60;;;;;;;-145.18;100.00;60484.78;5015039;28;20026;-66
2023/04/12 08:59:26;;;;;;;8.77;2.43;;;;;;;-145.18;100.00;60484.78;5014395;28;20028;-67
2023/04/12 09:01:53;;;;;;;8.40;2.70;;;;;;;-145.18;100.00;60484.78;5014282;28;20052;-67
2023/04/12 09:04:19;;;;;;;8.13;2.90;;;;;;;-145.18;100.00;60484.78;4996797;28;20528;-67
2023/04/12 09:06:44;;;;;;;7.13;2.80;;;;;;;-145.18;100.00;60484.78;5006794;28;20026;-67
2023/04/12 09:09:10;;;;;;;9.73;2.47;;;;;;;-145.18;100.00;60484.78;5014772;28;20081;-66
2023/04/12 09:11:36;;;;;;;6.30;2.50;;;;;;;-145.18;100.00;60484.78;5014383;28;20116;-66
2023/04/12 09:14:01;;;;;;;4.87;2.23;;;;;;;-145.18;100.00;60484.78;5014105;28;20500;-67
2023/04/12 09:16:38;;;;;;;5.50;3.00;;;;;;;-145.18;100.00;60484.78;5014495;28;20029;-67
2023/04/12 09:19:04;;;;;;;5.20;2.90;;;;;;;-145.18;100.00;60484.78;5014177;28;20037;-67
2023/04/12 09:21:33;;;;;;;4.03;2.00;;;;;;;-145.18;100.00;60484.78;5014394;28;20030;-66
2023/04/12 09:24:12;;;;;;;7.57;2.80;;;;;;;-145.18;100.00;60484.78;5014267;28;20330;-67
2023/04/12 09:26:38;;;;;;;5.13;2.73;;;;;;;-145.18;100.00;60484.78;5014272;28;20033;-68
2023/04/12 09:29:04;;;;;;;7.30;2.97;;;;;;;-145.18;100.00;60484.78;5014298;28;20386;-68
2023/04/12 09:31:30;;;;;;;10.20;3.70;;;;;;;-145.18;100.00;60484.78;5014224;28;20026;-68
2023/04/12 09:34:07;;;;;;;7.33;3.57;;;;;;;-145.18;100.00;60484.78;5014285;28;20405;-68
2023/04/12 09:36:39;;;;;;;9.13;4.17;;;;;;;-145.18;100.00;60484.78;5014204;28;20029;-68
2023/04/12 09:39:06;;;;;;;7.27;3.93;;;;;;;-145.18;100.00;60484.78;5013639;28;20069;-68
2023/04/12 09:41:32;;;;;;;6.90;3.27;;;;;;;-145.18;100.00;60484.78;5012617;28;20076;-66
2023/04/12 09:43:58;;;;;;;7.00;3.70;;;;;;;-145.18;100.00;60484.78;5014040;28;20105;-66
2023/04/12 09:46:24;;;;;;;8.33;3.50;;;;;;;-145.18;100.00;60484.78;5013447;28;20032;-66
2023/04/12 09:48:51;;;;;;;8.70;3.67;;;;;;;-145.18;100.00;60484.78;5013618;28;20034;-66
2023/04/12 09:51:28;;;;;;;5.50;2.93;;;;;;;-145.18;100.00;60484.78;5013952;28;20466;-66
2023/04/12 09:54:04;;;;;;;6.83;3.10;;;;;;;-145.18;100.00;60484.78;5013636;28;20029;-66
2023/04/12 09:56:32;;;;;;;7.80;3.33;;;;;;;-145.18;100.00;60484.78;5013816;28;20433;-67
2023/04/12 09:59:03;;;;;;;7.33;3.50;;;;;;;-145.18;100.00;60484.78;5013428;28;20374;-68
2023/04/12 10:01:33;;;;;;;8.23;3.88;;;;;;;-145.18;100.00;60484.78;5013373;28;20049;-67
2023/04/12 10:03:59;;;;;;;8.63;3.90;;;;;;;-145.18;100.00;60484.78;5012516;28;20510;-67
2023/04/12 10:06:26;;;;;;;6.13;3.87;;;;;;;-145.18;100.00;60484.78;5013639;28;20022;-68
2023/04/12 10:08:53;;;;;;;6.20;3.70;;;;;;;-145.18;100.00;60484.78;5013373;28;20076;-68
2023/04/12 10:11:18;;;;;;;8.67;4.17;;;;;;;-145.18;100.00;60484.78;5013786;28;20407;-68
2023/04/12 10:13:46;;;;;;;8.17;3.97;;;;;;;-145.18;100.00;60484.78;5013773;28;20057;-68
2023/04/12 10:16:12;;;;;;;7.60;3.63;;;;;;;-145.18;100.00;60484.78;5013361;28;20022;-68
2023/04/12 10:18:38;;;;;;;6.23;3.60;;;;;;;-145.18;100.00;60484.78;5013120;28;20022;-68
2023/04/12 10:21:05;;;;;;;6.83;3.90;;;;;;;-145.18;100.00;60484.78;5013252;28;20392;-68
2023/04/12 10:23:31;;;;;;;6.87;3.70;;;;;;;-145.18;100.00;60484.78;5013564;28;20536;-69
2023/04/12 10:25:58;;;;;;;8.80;4.30;;;;;;;-145.18;100.00;60484.78;5014403;28;20026;-68
2023/04/12 10:28:24;;;;;;;6.93;4.37;;;;;;;-145.18;100.00;60484.78;5017348;28;20029;-69
2023/04/12 10:30:53;;;;;;;8.00;4.50;;;;;;;-145.18;100.00;60484.78;5017138;28;20363;-69
2023/04/12 10:33:25;;;;;;;7.53;4.37;;;;;;;-145.18;100.00;60484.78;5016898;28;20021;-69
2023/04/12 10:35:59;;;;;;;9.27;4.60;;;;;;;-145.18;100.00;60484.78;5017510;28;20030;-69
2023/04/12 10:38:29;;;;;;;10.23;4.67;;;;;;;-145.18;100.00;60484.78;5016702;28;20413;-69
2023/04/12 10:41:15;;;;;;;5.93;4.17;;;;;;;-145.18;100.00;60484.78;5017084;28;20045;-67
2023/04/12 10:43:42;;;;;;;7.83;4.63;;;;;;;-145.18;100.00;60484.78;5016991;28;20026;-67
2023/04/12 10:46:37;;;;;;;10.83;5.03;;;;;;;-145.18;100.00;60484.78;5016959;28;20112;-68
2023/04/12 10:49:11;;;;;;;10.50;4.60;;;;;;;-145.18;100.00;60484.78;5017033;28;20124;-68
2023/04/12 10:51:36;;;;;;;7.70;4.90;;;;;;;-145.18;100.00;60484.78;5017136;28;20108;-68
2023/04/12 10:54:35;;;;;;;6.80;4.10;;;;;;;-145.18;100.00;60484.78;5016455;28;20109;-68
2023/04/12 10:57:02;;;;;;;7.97;4.17;;;;;;;-145.18;100.00;60484.78;5016995;28;20482;-68
2023/04/12 11:00:04;;;;;;;6.93;4.10;;;;;;;-145.18;100.00;60484.78;5016340;28;20025;-68
2023/04/12 11:02:33;;;;;;;6.00;4.15;;;;;;;-145.18;100.00;60484.78;4975409;28;20123;-69
2023/04/12 11:05:09;;;;;;;7.30;3.33;;;;;;;-145.18;100.00;60484.78;4959536;28;20037;-67
2023/04/12 11:07:39;;;;;;;6.27;3.90;;;;;;;-145.18;100.00;60484.78;4975548;28;20476;-68
2023/04/12 11:10:13;;;;;;;7.77;4.03;;;;;;;-145.18;100.00;60484.78;4975543;28;20506;-67
2023/04/12 11:12:40;;;;;;;8.03;3.90;;;;;;;-145.18;100.00;60484.78;4975535;28;20031;-67
2023/04/12 11:15:10;;;;;;;9.57;3.60;;;;;;;-145.18;100.00;60484.78;4959089;28;20122;-68